sensor_id;sensor_type;location;lat;lon;timestamp;temperature;humidity
38902;DHT22;24661;53.566;9.910;2023-04-25T00:01:11;7.80;99.90
38902;DHT22;24661;53.566;9.910;2023-04-25T00:03:39;7.80;99.90
38902;DHT22;24661;53.566;9.910;2023-04-25T00:06:05;7.80;99.90
38902;DHT22;24661;53.566;9.910;2023-04-25T00:08:32;7.80;99.90
38902;DHT22;24661;53.566;9.910;2023-04-25T00:10:58;7.80;99.90
38902;DHT22;24661;53.566;9.910;2023-04-25T00:13:24;7.70;99.90
38902;DHT22;24661;53.566;9.910;2023-04-25T00:15:51;7.70;99.90
38902;DHT22;24661;53.566;9.910;2023-04-25T00:18:18;7.70;99.90
38902;DHT22;24661;53.566;9.910;2023-04-25T00:20:44;7.70;99.90
38902;DHT22;24661;53.566;9.910;2023-04-25T00:23:16;7.60;99.90
38902;DHT22;24661;53.566;9.910;2023-04-25T00:25:48;7.60;99.90
38902;DHT22;24661;53.566;9.910;2023-04-25T00:28:14;7.60;99.90
38902;DHT22;24661;53.566;9.910;2023-04-25T00:30:42;7.60;99.90
38902;DHT22;24661;53.566;9.910;2023-04-25T00:33:09;7.60;99.90
38902;DHT22;24661;53.566;9.910;2023-04-25T00:35:35;7.60;99.90
38902;DHT22;24661;53.566;9.910;2023-04-25T00:38:01;7.60;99.90
38902;DHT22;24661;53.566;9.910;2023-04-25T00:40:27;7.60;99.90
38902;DHT22;24661;53.566;9.910;2023-04-25T00:42:53;7.60;99.90
38902;DHT22;24661;53.566;9.910;2023-04-25T00:45:19;7.50;99.90
38902;DHT22;24661;53.566;9.910;2023-04-25T00:47:45;7.40;99.90
38902;DHT22;24661;53.566;9.910;2023-04-25T00:50:12;7.40;99.90
38902;DHT22;24661;53.566;9.910;2023-04-25T00:52:43;7.40;99.90
38902;DHT22;24661;53.566;9.910;2023-04-25T00:55:10;7.40;99.90
38902;DHT22;24661;53.566;9.910;2023-04-25T00:57:36;7.40;99.90
38902;DHT22;24661;53.566;9.910;2023-04-25T01:00:06;7.40;99.90
38902;DHT22;24661;53.566;9.910;2023-04-25T01:02:36;7.40;99.90
38902;DHT22;24661;53.566;9.910;2023-04-25T01:05:03;7.50;99.90
38902;DHT22;24661;53.566;9.910;2023-04-25T01:07:29;7.40;99.90
38902;DHT22;24661;53.566;9.910;2023-04-25T01:09:55;7.40;99.90
38902;DHT22;24661;53.566;9.910;2023-04-25T01:12:22;7.40;99.90
38902;DHT22;24661;53.566;9.910;2023-04-25T01:14:48;7.40;99.90
38902;DHT22;24661;53.566;9.910;2023-04-25T01:17:14;7.30;99.90
38902;DHT22;24661;53.566;9.910;2023-04-25T01:19:40;7.30;99.90
38902;DHT22;24661;53.566;9.910;2023-04-25T01:22:06;7.30;99.90
38902;DHT22;24661;53.566;9.910;2023-04-25T01:24:32;7.30;99.90
38902;DHT22;24661;53.566;9.910;2023-04-25T01:26:59;7.20;99.90
38902;DHT22;24661;53.566;9.910;2023-04-25T01:29:26;7.20;99.90
38902;DHT22;24661;53.566;9.910;2023-04-25T01:31:52;7.20;99.90
38902;DHT22;24661;53.566;9.910;2023-04-25T01:34:18;7.10;99.90
38902;DHT22;24661;53.566;9.910;2023-04-25T01:36:44;7.10;99.90
38902;DHT22;24661;53.566;9.910;2023-04-25T01:39:09;7.10;99.90
38902;DHT22;24661;53.566;9.910;2023-04-25T01:41:35;7.10;99.90
38902;DHT22;24661;53.566;9.910;2023-04-25T01:44:02;7.00;99.90
38902;DHT22;24661;53.566;9.910;2023-04-25T01:46:28;7.00;99.90
38902;DHT22;24661;53.566;9.910;2023-04-25T01:48:54;7.00;99.90
38902;DHT22;24661;53.566;9.910;2023-04-25T01:51:20;7.00;99.90
38902;DHT22;24661;53.566;9.910;2023-04-25T01:53:45;7.00;99.90
38902;DHT22;24661;53.566;9.910;2023-04-25T01:56:11;7.00;99.90
38902;DHT22;24661;53.566;9.910;2023-04-25T01:58:37;6.90;99.90
38902;DHT22;24661;53.566;9.910;2023-04-25T02:01:02;6.90;99.90
38902;DHT22;24661;53.566;9.910;2023-04-25T02:03:29;6.90;99.90
38902;DHT22;24661;53.566;9.910;2023-04-25T02:05:55;6.90;99.90
38902;DHT22;24661;53.566;9.910;2023-04-25T02:08:21;6.80;99.90
38902;DHT22;24661;53.566;9.910;2023-04-25T02:10:46;6.80;99.90
38902;DHT22;24661;53.566;9.910;2023-04-25T02:13:12;6.90;99.90
38902;DHT22;24661;53.566;9.910;2023-04-25T02:15:37;6.90;99.90
38902;DHT22;24661;53.566;9.910;2023-04-25T02:18:03;6.90;99.90
38902;DHT22;24661;53.566;9.910;2023-04-25T02:20:29;6.80;99.90
38902;DHT22;24661;53.566;9.910;2023-04-25T02:22:56;6.80;99.90
38902;DHT22;24661;53.566;9.910;2023-04-25T02:25:21;6.80;99.90
38902;DHT22;24661;53.566;9.910;2023-04-25T02:27:48;6.80;99.90
38902;DHT22;24661;53.566;9.910;2023-04-25T02:30:14;6.70;99.90
38902;DHT22;24661;53.566;9.910;2023-04-25T02:32:40;6.80;99.90
38902;DHT22;24661;53.566;9.910;2023-04-25T02:35:06;6.70;99.90
38902;DHT22;24661;53.566;9.910;2023-04-25T02:37:35;6.70;99.90
38902;DHT22;24661;53.566;9.910;2023-04-25T02:40:02;6.80;99.90
38902;DHT22;24661;53.566;9.910;2023-04-25T02:42:29;6.70;99.90
38902;DHT22;24661;53.566;9.910;2023-04-25T02:44:55;6.80;99.90
38902;DHT22;24661;53.566;9.910;2023-04-25T02:47:20;6.70;99.90
38902;DHT22;24661;53.566;9.910;2023-04-25T02:49:46;8.70;99.90
38902;DHT22;24661;53.566;9.910;2023-04-25T02:52:12;6.70;99.90
38902;DHT22;24661;53.566;9.910;2023-04-25T02:54:39;6.60;99.90
38902;DHT22;24661;53.566;9.910;2023-04-25T02:57:05;6.60;99.90
38902;DHT22;24661;53.566;9.910;2023-04-25T02:59:31;6.50;99.90
38902;DHT22;24661;53.566;9.910;2023-04-25T03:01:56;6.60;99.90
38902;DHT22;24661;53.566;9.910;2023-04-25T03:04:22;6.50;99.90
38902;DHT22;24661;53.566;9.910;2023-04-25T03:06:50;6.50;99.90
38902;DHT22;24661;53.566;9.910;2023-04-25T03:09:15;6.50;99.90
38902;DHT22;24661;53.566;9.910;2023-04-25T03:11:41;6.40;99.90
38902;DHT22;24661;53.566;9.910;2023-04-25T03:14:07;6.40;99.90
38902;DHT22;24661;53.566;9.910;2023-04-25T03:16:32;6.40;99.90
38902;DHT22;24661;53.566;9.910;2023-04-25T03:18:58;6.30;99.90
38902;DHT22;24661;53.566;9.910;2023-04-25T03:21:24;6.30;99.90
38902;DHT22;24661;53.566;9.910;2023-04-25T03:23:49;6.30;99.90
38902;DHT22;24661;53.566;9.910;2023-04-25T03:26:15;7.60;99.90
38902;DHT22;24661;53.566;9.910;2023-04-25T03:28:41;6.20;99.90
38902;DHT22;24661;53.566;9.910;2023-04-25T03:31:06;6.10;99.90
38902;DHT22;24661;53.566;9.910;2023-04-25T03:33:32;6.00;99.90
38902;DHT22;24661;53.566;9.910;2023-04-25T03:35:57;6.00;99.90
38902;DHT22;24661;53.566;9.910;2023-04-25T03:38:23;6.00;99.90
38902;DHT22;24661;53.566;9.910;2023-04-25T03:40:50;5.90;99.90
38902;DHT22;24661;53.566;9.910;2023-04-25T03:43:16;6.00;99.90
38902;DHT22;24661;53.566;9.910;2023-04-25T03:45:42;6.00;99.90
38902;DHT22;24661;53.566;9.910;2023-04-25T03:48:07;6.00;99.90
38902;DHT22;24661;53.566;9.910;2023-04-25T03:50:33;5.90;99.90
38902;DHT22;24661;53.566;9.910;2023-04-25T03:52:58;6.00;99.90
38902;DHT22;24661;53.566;9.910;2023-04-25T03:55:24;6.00;99.90
38902;DHT22;24661;53.566;9.910;2023-04-25T03:57:50;6.00;99.90
38902;DHT22;24661;53.566;9.910;2023-04-25T04:00:15;5.90;99.90
38902;DHT22;24661;53.566;9.910;2023-04-25T04:02:41;5.90;99.90
38902;DHT22;24661;53.566;9.910;2023-04-25T04:05:07;5.90;99.90
38902;DHT22;24661;53.566;9.910;2023-04-25T04:07:33;5.90;99.90
38902;DHT22;24661;53.566;9.910;2023-04-25T04:09:59;5.90;99.90
38902;DHT22;24661;53.566;9.910;2023-04-25T04:12:25;5.80;99.90
38902;DHT22;24661;53.566;9.910;2023-04-25T04:14:50;5.80;99.90
38902;DHT22;24661;53.566;9.910;2023-04-25T04:17:16;5.80;99.90
38902;DHT22;24661;53.566;9.910;2023-04-25T04:19:42;5.70;99.90
38902;DHT22;24661;53.566;9.910;2023-04-25T04:22:07;5.70;99.90
38902;DHT22;24661;53.566;9.910;2023-04-25T04:24:33;5.70;99.90
38902;DHT22;24661;53.566;9.910;2023-04-25T04:26:58;5.70;99.90
38902;DHT22;24661;53.566;9.910;2023-04-25T04:29:24;5.60;99.90
38902;DHT22;24661;53.566;9.910;2023-04-25T04:31:50;5.60;99.90
38902;DHT22;24661;53.566;9.910;2023-04-25T04:34:18;5.60;99.90
38902;DHT22;24661;53.566;9.910;2023-04-25T04:36:44;5.60;99.90
38902;DHT22;24661;53.566;9.910;2023-04-25T04:39:13;5.60;99.90
38902;DHT22;24661;53.566;9.910;2023-04-25T04:41:39;5.70;99.90
38902;DHT22;24661;53.566;9.910;2023-04-25T04:44:05;5.70;99.90
38902;DHT22;24661;53.566;9.910;2023-04-25T04:46:32;5.80;99.90
38902;DHT22;24661;53.566;9.910;2023-04-25T04:49:04;5.80;99.90
38902;DHT22;24661;53.566;9.910;2023-04-25T04:51:30;5.90;99.90
38902;DHT22;24661;53.566;9.910;2023-04-25T04:53:56;6.00;99.90
38902;DHT22;24661;53.566;9.910;2023-04-25T04:56:24;6.00;99.90
38902;DHT22;24661;53.566;9.910;2023-04-25T04:58:50;6.00;99.90
38902;DHT22;24661;53.566;9.910;2023-04-25T05:01:16;6.10;99.90
38902;DHT22;24661;53.566;9.910;2023-04-25T05:03:41;6.10;99.90
38902;DHT22;24661;53.566;9.910;2023-04-25T05:06:07;6.10;99.90
38902;DHT22;24661;53.566;9.910;2023-04-25T05:08:34;6.10;99.90
38902;DHT22;24661;53.566;9.910;2023-04-25T05:10:59;6.10;99.90
38902;DHT22;24661;53.566;9.910;2023-04-25T05:13:25;6.20;99.90
38902;DHT22;24661;53.566;9.910;2023-04-25T05:15:51;6.10;99.90
38902;DHT22;24661;53.566;9.910;2023-04-25T05:18:16;6.20;99.90
38902;DHT22;24661;53.566;9.910;2023-04-25T05:20:42;6.20;99.90
38902;DHT22;24661;53.566;9.910;2023-04-25T05:23:07;6.20;99.90
38902;DHT22;24661;53.566;9.910;2023-04-25T05:25:33;6.20;99.90
38902;DHT22;24661;53.566;9.910;2023-04-25T05:27:58;6.20;99.90
38902;DHT22;24661;53.566;9.910;2023-04-25T05:30:24;6.20;99.90
38902;DHT22;24661;53.566;9.910;2023-04-25T05:32:50;6.20;99.90
38902;DHT22;24661;53.566;9.910;2023-04-25T05:35:16;6.20;99.90
38902;DHT22;24661;53.566;9.910;2023-04-25T05:37:41;6.30;99.90
38902;DHT22;24661;53.566;9.910;2023-04-25T05:40:08;6.30;99.90
38902;DHT22;24661;53.566;9.910;2023-04-25T05:42:34;6.20;99.90
38902;DHT22;24661;53.566;9.910;2023-04-25T05:44:59;6.30;99.90
38902;DHT22;24661;53.566;9.910;2023-04-25T05:47:26;6.30;99.90
38902;DHT22;24661;53.566;9.910;2023-04-25T05:49:51;6.30;99.90
38902;DHT22;24661;53.566;9.910;2023-04-25T05:52:17;6.40;99.90
38902;DHT22;24661;53.566;9.910;2023-04-25T05:54:43;6.40;99.90
38902;DHT22;24661;53.566;9.910;2023-04-25T05:57:08;6.50;99.90
38902;DHT22;24661;53.566;9.910;2023-04-25T05:59:34;6.50;99.90
38902;DHT22;24661;53.566;9.910;2023-04-25T06:01:59;6.50;99.90
38902;DHT22;24661;53.566;9.910;2023-04-25T06:04:26;6.50;99.90
38902;DHT22;24661;53.566;9.910;2023-04-25T06:06:51;6.50;99.90
38902;DHT22;24661;53.566;9.910;2023-04-25T06:09:17;6.50;99.90
38902;DHT22;24661;53.566;9.910;2023-04-25T06:11:42;6.50;99.90
38902;DHT22;24661;53.566;9.910;2023-04-25T06:14:08;6.60;99.90
38902;DHT22;24661;53.566;9.910;2023-04-25T06:16:33;6.60;99.90
38902;DHT22;24661;53.566;9.910;2023-04-25T06:18:59;6.60;99.90
38902;DHT22;24661;53.566;9.910;2023-04-25T06:21:25;6.60;99.90
38902;DHT22;24661;53.566;9.910;2023-04-25T06:23:51;6.70;99.90
38902;DHT22;24661;53.566;9.910;2023-04-25T06:26:16;6.70;99.90
38902;DHT22;24661;53.566;9.910;2023-04-25T06:28:42;6.70;99.90
38902;DHT22;24661;53.566;9.910;2023-04-25T06:31:07;6.60;99.90
38902;DHT22;24661;53.566;9.910;2023-04-25T06:33:33;6.60;99.90
38902;DHT22;24661;53.566;9.910;2023-04-25T06:35:59;6.50;99.90
38902;DHT22;24661;53.566;9.910;2023-04-25T06:38:24;6.50;99.90
38902;DHT22;24661;53.566;9.910;2023-04-25T06:40:50;6.60;99.90
38902;DHT22;24661;53.566;9.910;2023-04-25T06:43:15;6.60;99.90
38902;DHT22;24661;53.566;9.910;2023-04-25T06:45:41;6.20;99.90
38902;DHT22;24661;53.566;9.910;2023-04-25T06:48:07;6.70;99.90
38902;DHT22;24661;53.566;9.910;2023-04-25T06:50:33;6.80;99.90
38902;DHT22;24661;53.566;9.910;2023-04-25T06:52:59;6.90;99.90
38902;DHT22;24661;53.566;9.910;2023-04-25T06:55:26;7.00;99.90
38902;DHT22;24661;53.566;9.910;2023-04-25T06:57:52;7.10;99.90
38902;DHT22;24661;53.566;9.910;2023-04-25T07:00:18;7.20;99.90
38902;DHT22;24661;53.566;9.910;2023-04-25T07:02:44;7.20;99.90
38902;DHT22;24661;53.566;9.910;2023-04-25T07:05:10;7.20;99.90
38902;DHT22;24661;53.566;9.910;2023-04-25T07:07:35;7.30;99.90
38902;DHT22;24661;53.566;9.910;2023-04-25T07:10:01;7.30;99.90
38902;DHT22;24661;53.566;9.910;2023-04-25T07:12:26;7.30;99.90
38902;DHT22;24661;53.566;9.910;2023-04-25T07:14:52;7.30;99.90
38902;DHT22;24661;53.566;9.910;2023-04-25T07:17:18;7.40;99.90
38902;DHT22;24661;53.566;9.910;2023-04-25T07:19:44;7.50;99.90
38902;DHT22;24661;53.566;9.910;2023-04-25T07:22:10;7.60;99.90
38902;DHT22;24661;53.566;9.910;2023-04-25T07:24:35;7.60;99.90
38902;DHT22;24661;53.566;9.910;2023-04-25T07:27:01;7.60;99.90
38902;DHT22;24661;53.566;9.910;2023-04-25T07:29:27;7.60;99.90
38902;DHT22;24661;53.566;9.910;2023-04-25T07:31:53;9.70;99.90
38902;DHT22;24661;53.566;9.910;2023-04-25T07:34:19;7.60;99.90
38902;DHT22;24661;53.566;9.910;2023-04-25T07:36:44;7.60;99.90
38902;DHT22;24661;53.566;9.910;2023-04-25T07:39:10;7.60;99.90
38902;DHT22;24661;53.566;9.910;2023-04-25T07:41:36;7.70;99.90
38902;DHT22;24661;53.566;9.910;2023-04-25T07:44:01;7.80;99.90
38902;DHT22;24661;53.566;9.910;2023-04-25T07:46:27;7.80;99.90
38902;DHT22;24661;53.566;9.910;2023-04-25T07:48:52;7.90;99.90
38902;DHT22;24661;53.566;9.910;2023-04-25T07:51:18;8.00;99.90
38902;DHT22;24661;53.566;9.910;2023-04-25T07:53:45;8.00;99.90
38902;DHT22;24661;53.566;9.910;2023-04-25T07:56:11;8.00;99.90
38902;DHT22;24661;53.566;9.910;2023-04-25T07:58:36;8.00;99.90
38902;DHT22;24661;53.566;9.910;2023-04-25T08:01:02;8.20;99.90
38902;DHT22;24661;53.566;9.910;2023-04-25T08:03:28;8.30;99.90
38902;DHT22;24661;53.566;9.910;2023-04-25T08:05:53;8.30;99.90
38902;DHT22;24661;53.566;9.910;2023-04-25T08:08:19;8.30;99.90
38902;DHT22;24661;53.566;9.910;2023-04-25T08:10:44;8.40;99.90
38902;DHT22;24661;53.566;9.910;2023-04-25T08:13:10;8.50;99.90
38902;DHT22;24661;53.566;9.910;2023-04-25T08:15:35;8.70;99.90
38902;DHT22;24661;53.566;9.910;2023-04-25T08:18:01;10.80;99.90
38902;DHT22;24661;53.566;9.910;2023-04-25T08:20:26;8.70;99.90
38902;DHT22;24661;53.566;9.910;2023-04-25T08:22:52;8.60;99.90
38902;DHT22;24661;53.566;9.910;2023-04-25T08:25:17;8.40;99.90
38902;DHT22;24661;53.566;9.910;2023-04-25T08:27:43;8.30;99.90
38902;DHT22;24661;53.566;9.910;2023-04-25T08:30:09;8.40;99.90
38902;DHT22;24661;53.566;9.910;2023-04-25T08:32:34;8.50;99.90
38902;DHT22;24661;53.566;9.910;2023-04-25T08:35:03;8.60;99.90
38902;DHT22;24661;53.566;9.910;2023-04-25T08:37:30;8.60;99.90
38902;DHT22;24661;53.566;9.910;2023-04-25T08:39:55;8.50;99.90
38902;DHT22;24661;53.566;9.910;2023-04-25T08:42:21;8.40;99.90
38902;DHT22;24661;53.566;9.910;2023-04-25T08:44:48;8.40;99.90
38902;DHT22;24661;53.566;9.910;2023-04-25T08:47:14;8.40;99.90
38902;DHT22;24661;53.566;9.910;2023-04-25T08:49:40;8.40;99.90
38902;DHT22;24661;53.566;9.910;2023-04-25T08:52:13;8.30;99.90
38902;DHT22;24661;53.566;9.910;2023-04-25T08:54:42;8.20;99.90
38902;DHT22;24661;53.566;9.910;2023-04-25T08:57:09;8.10;99.90
38902;DHT22;24661;53.566;9.910;2023-04-25T08:59:35;8.00;99.90
38902;DHT22;24661;53.566;9.910;2023-04-25T09:02:03;8.10;99.90
38902;DHT22;24661;53.566;9.910;2023-04-25T09:04:31;8.10;99.90
38902;DHT22;24661;53.566;9.910;2023-04-25T09:06:56;8.00;99.90
38902;DHT22;24661;53.566;9.910;2023-04-25T09:09:23;7.70;99.90
38902;DHT22;24661;53.566;9.910;2023-04-25T09:11:49;7.70;99.90
38902;DHT22;24661;53.566;9.910;2023-04-25T09:14:20;7.70;99.90
38902;DHT22;24661;53.566;9.910;2023-04-25T09:17:05;7.70;99.90
38902;DHT22;24661;53.566;9.910;2023-04-25T09:19:34;8.00;99.90
38902;DHT22;24661;53.566;9.910;2023-04-25T09:22:02;8.20;99.90
38902;DHT22;24661;53.566;9.910;2023-04-25T09:24:38;8.30;99.90
38902;DHT22;24661;53.566;9.910;2023-04-25T09:27:09;8.30;99.90
38902;DHT22;24661;53.566;9.910;2023-04-25T09:29:36;8.20;99.90
38902;DHT22;24661;53.566;9.910;2023-04-25T09:32:24;8.40;99.90
38902;DHT22;24661;53.566;9.910;2023-04-25T09:34:57;9.10;99.90
38902;DHT22;24661;53.566;9.910;2023-04-25T09:37:28;8.90;99.90
38902;DHT22;24661;53.566;9.910;2023-04-25T09:39:58;8.10;99.90
38902;DHT22;24661;53.566;9.910;2023-04-25T09:42:27;7.40;99.90
38902;DHT22;24661;53.566;9.910;2023-04-25T09:44:55;7.50;99.90
38902;DHT22;24661;53.566;9.910;2023-04-25T09:47:24;7.40;99.90
38902;DHT22;24661;53.566;9.910;2023-04-25T09:49:51;7.80;99.90
38902;DHT22;24661;53.566;9.910;2023-04-25T09:52:19;7.90;99.90
38902;DHT22;24661;53.566;9.910;2023-04-25T09:54:46;7.90;99.90
38902;DHT22;24661;53.566;9.910;2023-04-25T09:57:20;9.40;99.90
38902;DHT22;24661;53.566;9.910;2023-04-25T09:59:48;7.80;99.90
38902;DHT22;24661;53.566;9.910;2023-04-25T10:02:16;8.00;99.90
38902;DHT22;24661;53.566;9.910;2023-04-25T10:04:44;8.00;99.90
38902;DHT22;24661;53.566;9.910;2023-04-25T10:07:11;8.10;99.90
38902;DHT22;24661;53.566;9.910;2023-04-25T10:09:39;8.30;99.90
38902;DHT22;24661;53.566;9.910;2023-04-25T10:12:05;8.50;99.90
38902;DHT22;24661;53.566;9.910;2023-04-25T10:14:31;8.70;99.90
38902;DHT22;24661;53.566;9.910;2023-04-25T10:16:58;8.90;99.90
38902;DHT22;24661;53.566;9.910;2023-04-25T10:19:25;9.00;99.90
38902;DHT22;24661;53.566;9.910;2023-04-25T10:24:30;8.70;99.90
38902;DHT22;24661;53.566;9.910;2023-04-25T10:26:57;8.70;99.90
38902;DHT22;24661;53.566;9.910;2023-04-25T10:29:25;8.80;99.90
38902;DHT22;24661;53.566;9.910;2023-04-25T10:31:51;8.90;99.90
38902;DHT22;24661;53.566;9.910;2023-04-25T10:34:17;8.90;99.90
38902;DHT22;24661;53.566;9.910;2023-04-25T10:36:49;8.80;99.90
38902;DHT22;24661;53.566;9.910;2023-04-25T10:39:22;8.90;99.90
38902;DHT22;24661;53.566;9.910;2023-04-25T10:41:56;9.00;99.90
38902;DHT22;24661;53.566;9.910;2023-04-25T10:44:22;9.10;99.90
38902;DHT22;24661;53.566;9.910;2023-04-25T10:46:48;9.10;99.90
38902;DHT22;24661;53.566;9.910;2023-04-25T10:52:17;9.20;99.90
38902;DHT22;24661;53.566;9.910;2023-04-25T10:54:54;9.30;99.90
38902;DHT22;24661;53.566;9.910;2023-04-25T10:57:28;9.40;99.90
38902;DHT22;24661;53.566;9.910;2023-04-25T11:02:36;9.40;99.90
38902;DHT22;24661;53.566;9.910;2023-04-25T11:05:03;9.30;99.90
38902;DHT22;24661;53.566;9.910;2023-04-25T11:07:47;9.20;99.90
38902;DHT22;24661;53.566;9.910;2023-04-25T11:10:15;9.30;99.90
38902;DHT22;24661;53.566;9.910;2023-04-25T11:12:40;9.50;99.90
38902;DHT22;24661;53.566;9.910;2023-04-25T11:15:07;9.60;99.90
38902;DHT22;24661;53.566;9.910;2023-04-25T11:17:33;9.80;99.90
38902;DHT22;24661;53.566;9.910;2023-04-25T11:19:59;10.10;99.90
38902;DHT22;24661;53.566;9.910;2023-04-25T11:22:27;10.20;99.90
38902;DHT22;24661;53.566;9.910;2023-04-25T11:24:53;10.40;99.90
38902;DHT22;24661;53.566;9.910;2023-04-25T11:27:20;10.60;99.90
38902;DHT22;24661;53.566;9.910;2023-04-25T11:29:46;10.50;99.90
38902;DHT22;24661;53.566;9.910;2023-04-25T11:32:17;10.10;99.90
38902;DHT22;24661;53.566;9.910;2023-04-25T11:34:43;9.50;99.90
38902;DHT22;24661;53.566;9.910;2023-04-25T11:37:10;9.10;99.90
38902;DHT22;24661;53.566;9.910;2023-04-25T11:39:43;8.90;99.90
38902;DHT22;24661;53.566;9.910;2023-04-25T11:42:09;8.70;99.90
38902;DHT22;24661;53.566;9.910;2023-04-25T11:44:35;8.50;99.90
38902;DHT22;24661;53.566;9.910;2023-04-25T11:47:03;8.30;99.90
38902;DHT22;24661;53.566;9.910;2023-04-25T11:49:34;8.40;99.90
38902;DHT22;24661;53.566;9.910;2023-04-25T11:52:23;8.30;99.90
38902;DHT22;24661;53.566;9.910;2023-04-25T11:54:48;8.50;99.90
38902;DHT22;24661;53.566;9.910;2023-04-25T11:57:14;8.70;99.90
38902;DHT22;24661;53.566;9.910;2023-04-25T11:59:40;8.70;99.90
38902;DHT22;24661;53.566;9.910;2023-04-25T12:02:06;8.90;99.90
38902;DHT22;24661;53.566;9.910;2023-04-25T12:04:32;9.00;99.90
38902;DHT22;24661;53.566;9.910;2023-04-25T12:06:59;9.30;99.90
38902;DHT22;24661;53.566;9.910;2023-04-25T12:09:30;9.70;99.90
38902;DHT22;24661;53.566;9.910;2023-04-25T12:11:57;10.00;99.90
38902;DHT22;24661;53.566;9.910;2023-04-25T12:14:28;10.20;99.90
38902;DHT22;24661;53.566;9.910;2023-04-25T12:16:59;10.30;99.90
38902;DHT22;24661;53.566;9.910;2023-04-25T12:19:26;10.40;99.90
38902;DHT22;24661;53.566;9.910;2023-04-25T12:21:52;10.30;99.90
38902;DHT22;24661;53.566;9.910;2023-04-25T12:24:22;10.30;99.90
38902;DHT22;24661;53.566;9.910;2023-04-25T12:27:04;10.30;99.90
38902;DHT22;24661;53.566;9.910;2023-04-25T12:29:32;10.20;99.90
38902;DHT22;24661;53.566;9.910;2023-04-25T12:31:58;10.40;99.90
38902;DHT22;24661;53.566;9.910;2023-04-25T12:34:25;10.30;99.90
38902;DHT22;24661;53.566;9.910;2023-04-25T12:36:54;10.50;99.90
38902;DHT22;24661;53.566;9.910;2023-04-25T12:39:22;10.70;99.90
38902;DHT22;24661;53.566;9.910;2023-04-25T12:41:52;10.80;99.90
38902;DHT22;24661;53.566;9.910;2023-04-25T12:44:19;11.00;99.90
38902;DHT22;24661;53.566;9.910;2023-04-25T12:46:45;11.10;99.90
38902;DHT22;24661;53.566;9.910;2023-04-25T12:49:11;10.90;99.90
38902;DHT22;24661;53.566;9.910;2023-04-25T12:51:37;10.60;99.90
38902;DHT22;24661;53.566;9.910;2023-04-25T12:54:05;10.20;99.90
38902;DHT22;24661;53.566;9.910;2023-04-25T12:56:31;9.90;99.90
38902;DHT22;24661;53.566;9.910;2023-04-25T12:58:57;10.00;99.90
38902;DHT22;24661;53.566;9.910;2023-04-25T13:01:25;10.00;99.90
38902;DHT22;24661;53.566;9.910;2023-04-25T13:03:52;10.10;99.90
38902;DHT22;24661;53.566;9.910;2023-04-25T13:06:19;10.30;99.90
38902;DHT22;24661;53.566;9.910;2023-04-25T13:08:46;10.60;99.90
38902;DHT22;24661;53.566;9.910;2023-04-25T13:11:12;10.70;99.90
38902;DHT22;24661;53.566;9.910;2023-04-25T13:13:38;10.60;99.90
38902;DHT22;24661;53.566;9.910;2023-04-25T13:16:05;10.10;99.90
38902;DHT22;24661;53.566;9.910;2023-04-25T13:18:32;9.30;99.90
38902;DHT22;24661;53.566;9.910;2023-04-25T13:20:59;8.20;99.90
38902;DHT22;24661;53.566;9.910;2023-04-25T13:23:26;7.60;99.90
38902;DHT22;24661;53.566;9.910;2023-04-25T13:25:52;7.40;99.90
38902;DHT22;24661;53.566;9.910;2023-04-25T13:28:18;7.30;99.90
38902;DHT22;24661;53.566;9.910;2023-04-25T13:30:44;7.50;99.90
38902;DHT22;24661;53.566;9.910;2023-04-25T13:33:10;7.80;99.90
38902;DHT22;24661;53.566;9.910;2023-04-25T13:35:40;8.10;99.90
38902;DHT22;24661;53.566;9.910;2023-04-25T13:38:06;8.40;99.90
38902;DHT22;24661;53.566;9.910;2023-04-25T13:40:32;8.70;99.90
38902;DHT22;24661;53.566;9.910;2023-04-25T13:43:03;9.30;99.90
38902;DHT22;24661;53.566;9.910;2023-04-25T13:45:29;9.60;99.90
38902;DHT22;24661;53.566;9.910;2023-04-25T13:47:58;9.50;99.90
38902;DHT22;24661;53.566;9.910;2023-04-25T13:50:24;8.90;99.90
38902;DHT22;24661;53.566;9.910;2023-04-25T13:52:50;8.30;99.90
38902;DHT22;24661;53.566;9.910;2023-04-25T13:55:16;7.50;99.90
38902;DHT22;24661;53.566;9.910;2023-04-25T13:57:44;7.10;99.90
38902;DHT22;24661;53.566;9.910;2023-04-25T14:00:14;6.80;99.90
38902;DHT22;24661;53.566;9.910;2023-04-25T14:02:40;6.80;99.90
38902;DHT22;24661;53.566;9.910;2023-04-25T14:05:08;6.80;99.90
38902;DHT22;24661;53.566;9.910;2023-04-25T14:07:34;6.80;99.90
38902;DHT22;24661;53.566;9.910;2023-04-25T14:10:03;7.10;99.90
38902;DHT22;24661;53.566;9.910;2023-04-25T14:12:30;7.60;99.90
38902;DHT22;24661;53.566;9.910;2023-04-25T14:14:56;8.00;99.90
38902;DHT22;24661;53.566;9.910;2023-04-25T14:17:23;8.30;99.90
38902;DHT22;24661;53.566;9.910;2023-04-25T14:19:55;8.60;99.90
38902;DHT22;24661;53.566;9.910;2023-04-25T14:22:23;8.80;99.90
38902;DHT22;24661;53.566;9.910;2023-04-25T14:24:49;9.10;99.90
38902;DHT22;24661;53.566;9.910;2023-04-25T14:27:15;9.30;99.90
38902;DHT22;24661;53.566;9.910;2023-04-25T14:29:41;9.40;99.90
38902;DHT22;24661;53.566;9.910;2023-04-25T14:32:12;9.20;99.90
38902;DHT22;24661;53.566;9.910;2023-04-25T14:34:37;9.30;99.90
38902;DHT22;24661;53.566;9.910;2023-04-25T14:37:03;9.40;99.90
38902;DHT22;24661;53.566;9.910;2023-04-25T14:39:29;9.70;99.90
38902;DHT22;24661;53.566;9.910;2023-04-25T14:41:55;9.90;99.90
38902;DHT22;24661;53.566;9.910;2023-04-25T14:44:22;10.10;99.90
38902;DHT22;24661;53.566;9.910;2023-04-25T14:46:58;10.30;99.90
38902;DHT22;24661;53.566;9.910;2023-04-25T14:49:31;10.40;99.90
38902;DHT22;24661;53.566;9.910;2023-04-25T14:51:59;10.40;99.90
38902;DHT22;24661;53.566;9.910;2023-04-25T14:54:30;10.60;99.90
38902;DHT22;24661;53.566;9.910;2023-04-25T14:56:56;10.60;99.90
38902;DHT22;24661;53.566;9.910;2023-04-25T14:59:23;10.50;99.90
38902;DHT22;24661;53.566;9.910;2023-04-25T15:01:50;10.30;99.90
38902;DHT22;24661;53.566;9.910;2023-04-25T15:04:16;10.10;99.90
38902;DHT22;24661;53.566;9.910;2023-04-25T15:06:43;9.80;99.90
38902;DHT22;24661;53.566;9.910;2023-04-25T15:09:09;9.50;99.90
38902;DHT22;24661;53.566;9.910;2023-04-25T15:11:36;9.50;99.90
38902;DHT22;24661;53.566;9.910;2023-04-25T15:14:02;9.30;99.90
38902;DHT22;24661;53.566;9.910;2023-04-25T15:16:27;9.10;99.90
38902;DHT22;24661;53.566;9.910;2023-04-25T15:18:53;9.10;99.90
38902;DHT22;24661;53.566;9.910;2023-04-25T15:21:18;9.00;99.90
38902;DHT22;24661;53.566;9.910;2023-04-25T15:23:44;8.90;99.90
38902;DHT22;24661;53.566;9.910;2023-04-25T15:26:10;9.30;99.90
38902;DHT22;24661;53.566;9.910;2023-04-25T15:28:36;9.70;99.90
38902;DHT22;24661;53.566;9.910;2023-04-25T15:31:01;10.00;99.90
38902;DHT22;24661;53.566;9.910;2023-04-25T15:33:27;10.20;99.90
38902;DHT22;24661;53.566;9.910;2023-04-25T15:35:53;10.30;99.90
38902;DHT22;24661;53.566;9.910;2023-04-25T15:38:18;10.20;99.90
38902;DHT22;24661;53.566;9.910;2023-04-25T15:40:44;10.20;99.90
38902;DHT22;24661;53.566;9.910;2023-04-25T15:43:10;10.40;99.90
38902;DHT22;24661;53.566;9.910;2023-04-25T15:45:40;10.90;99.90
38902;DHT22;24661;53.566;9.910;2023-04-25T15:48:05;10.90;99.90
38902;DHT22;24661;53.566;9.910;2023-04-25T15:50:32;10.70;99.90